Etusivu
METAR-TAF:

METAR-TAF

Lentoasemat :

Starkville, Mississippi, Yhdysvallat

Leveyspiiri: 33-25-59N, Pituuspiiri: 088-50-55W, korkeus merenpinnasta: 101 m

Tämänhetkinen sää

Tämä raportti tehtiin 1 tunti ja 32 minuuttia sitten, kello 17.55 UTC
Tuuli 9 kn etelästä puuskistuen 17 kn:hen
Lämpötila 25°C
Kosteus 65%
Ilmanpaine 1017 hPa
Näkyvyys: 16.1 km
Hajanaisia pilviä 2900 ft:n korkeudessa
Hajonneita pilviä 3800 ft:n korkeudessa
Pilvistä 11000 ft:n korkeudessa

METAR: KSTF 281755Z AUTO 19009G17KT 10SM SCT029 BKN038 OVC110 25/18 A3003 RMK AO2

Aika: 13:27 (19:27 UTC)


TAF: puuttuu

Säähavainnot ja -ennusteet yli 4000 lentoasemalta (METAR- ja TAF-raportit).

Käytössä olevat sääasemat on merkitty karttaan keltaisilla ja punaisilla pisteillä.

Aseta hiiri pisteen päälle nähdäksesi sääaseman nimen.

Klikkaa sitten nähdäksesi säähavainnot ja -ennusteet.

Kartan vaihtaminen: klikkaa mustalla rastilla varustettuja vihreitä pisteitä, niin voit zoomata sisään; viivalla varustettua vihreää pistettä, niin voit zoomata ulos tai vihreitä nuolia, niin pääset viereisille kartoille.


METAR-TAF: